sensor_id;sensor_type;location;lat;lon;timestamp;pressure;altitude;pressure_sealevel;temperature;humidity
5996;BME280;3026;53.612;7.278;2023-04-01T00:01:06;99182.16;;;10.49;100.00
5996;BME280;3026;53.612;7.278;2023-04-01T00:03:33;99183.22;;;10.48;100.00
5996;BME280;3026;53.612;7.278;2023-04-01T00:06:01;99185.94;;;10.48;100.00
5996;BME280;3026;53.612;7.278;2023-04-01T00:08:28;99180.69;;;10.47;100.00
5996;BME280;3026;53.612;7.278;2023-04-01T00:10:57;99184.25;;;10.47;100.00
5996;BME280;3026;53.612;7.278;2023-04-01T00:13:24;99180.47;;;10.48;100.00
5996;BME280;3026;53.612;7.278;2023-04-01T00:15:52;99185.94;;;10.48;100.00
5996;BME280;3026;53.612;7.278;2023-04-01T00:18:19;99179.66;;;10.48;100.00
5996;BME280;3026;53.612;7.278;2023-04-01T00:20:47;99183.03;;;10.43;100.00
5996;BME280;3026;53.612;7.278;2023-04-01T00:23:15;99188.03;;;10.46;100.00
5996;BME280;3026;53.612;7.278;2023-04-01T00:25:42;99193.50;;;10.46;100.00
5996;BME280;3026;53.612;7.278;2023-04-01T00:28:12;99184.69;;;10.44;100.00
5996;BME280;3026;53.612;7.278;2023-04-01T00:30:38;99175.91;;;10.42;100.00
5996;BME280;3026;53.612;7.278;2023-04-01T00:33:05;99187.63;;;10.43;100.00
5996;BME280;3026;53.612;7.278;2023-04-01T00:35:32;99186.81;;;10.42;100.00
5996;BME280;3026;53.612;7.278;2023-04-01T00:38:00;99185.09;;;10.41;100.00
5996;BME280;3026;53.612;7.278;2023-04-01T00:40:29;99185.09;;;10.41;100.00
5996;BME280;3026;53.612;7.278;2023-04-01T00:42:56;99189.72;;;10.41;100.00
5996;BME280;3026;53.612;7.278;2023-04-01T00:45:32;99181.75;;;10.39;100.00
5996;BME280;3026;53.612;7.278;2023-04-01T00:48:02;99183.44;;;10.40;100.00
5996;BME280;3026;53.612;7.278;2023-04-01T00:50:31;99180.69;;;10.40;100.00
5996;BME280;3026;53.612;7.278;2023-04-01T00:53:01;99178.41;;;10.37;100.00
5996;BME280;3026;53.612;7.278;2023-04-01T00:55:33;99177.16;;;10.33;100.00
5996;BME280;3026;53.612;7.278;2023-04-01T00:58:03;99179.69;;;10.35;100.00
5996;BME280;3026;53.612;7.278;2023-04-01T01:00:34;99184.28;;;10.34;100.00
5996;BME280;3026;53.612;7.278;2023-04-01T01:03:02;99192.47;;;10.34;100.00
5996;BME280;3026;53.612;7.278;2023-04-01T01:05:38;99196.84;;;10.35;100.00
5996;BME280;3026;53.612;7.278;2023-04-01T01:08:15;99187.44;;;10.31;100.00
5996;BME280;3026;53.612;7.278;2023-04-01T01:10:48;99197.06;;;10.34;100.00
5996;BME280;3026;53.612;7.278;2023-04-01T01:13:17;99195.19;;;10.34;100.00
5996;BME280;3026;53.612;7.278;2023-04-01T01:15:54;99198.97;;;10.33;100.00
5996;BME280;3026;53.612;7.278;2023-04-01T01:18:29;99196.44;;;10.32;100.00
5996;BME280;3026;53.612;7.278;2023-04-01T01:21:30;99195.78;;;10.30;100.00
5996;BME280;3026;53.612;7.278;2023-04-01T01:24:13;99190.56;;;10.28;100.00
5996;BME280;3026;53.612;7.278;2023-04-01T01:27:03;99193.06;;;10.30;100.00
5996;BME280;3026;53.612;7.278;2023-04-01T01:33:06;99203.13;;;10.29;100.00
5996;BME280;3026;53.612;7.278;2023-04-01T01:35:41;99204.81;;;10.30;100.00
5996;BME280;3026;53.612;7.278;2023-04-01T01:38:14;99206.69;;;10.30;100.00
5996;BME280;3026;53.612;7.278;2023-04-01T01:40:45;99201.06;;;10.31;100.00
5996;BME280;3026;53.612;7.278;2023-04-01T01:43:16;99197.91;;;10.28;100.00
5996;BME280;3026;53.612;7.278;2023-04-01T01:45:47;99207.53;;;10.30;100.00
5996;BME280;3026;53.612;7.278;2023-04-01T01:48:16;99211.97;;;10.31;100.00
5996;BME280;3026;53.612;7.278;2023-04-01T01:50:46;99199.34;;;10.30;100.00
5996;BME280;3026;53.612;7.278;2023-04-01T01:53:15;99201.25;;;10.30;100.00
5996;BME280;3026;53.612;7.278;2023-04-01T01:55:43;99201.47;;;10.28;100.00
5996;BME280;3026;53.612;7.278;2023-04-01T01:58:13;99197.69;;;10.29;100.00
5996;BME280;3026;53.612;7.278;2023-04-01T02:00:45;99203.13;;;10.29;100.00
5996;BME280;3026;53.612;7.278;2023-04-01T02:03:14;99210.25;;;10.30;100.00
5996;BME280;3026;53.612;7.278;2023-04-01T02:05:42;99204.81;;;10.30;100.00
5996;BME280;3026;53.612;7.278;2023-04-01T02:08:14;99210.25;;;10.30;100.00
5996;BME280;3026;53.612;7.278;2023-04-01T02:10:46;99213.84;;;10.31;100.00
5996;BME280;3026;53.612;7.278;2023-04-01T02:13:19;99209.00;;;10.26;100.00
5996;BME280;3026;53.612;7.278;2023-04-01T02:15:50;99211.53;;;10.28;100.00
5996;BME280;3026;53.612;7.278;2023-04-01T02:18:21;99227.47;;;10.31;100.00
5996;BME280;3026;53.612;7.278;2023-04-01T02:20:49;99216.56;;;10.31;100.00
5996;BME280;3026;53.612;7.278;2023-04-01T02:23:18;99222.84;;;10.31;100.00
5996;BME280;3026;53.612;7.278;2023-04-01T02:25:46;99221.16;;;10.30;100.00
5996;BME280;3026;53.612;7.278;2023-04-01T02:28:14;99224.94;;;10.29;100.00
5996;BME280;3026;53.612;7.278;2023-04-01T02:30:46;99228.31;;;10.31;100.00
5996;BME280;3026;53.612;7.278;2023-04-01T02:33:13;99226.19;;;10.33;100.00
5996;BME280;3026;53.612;7.278;2023-04-01T02:35:40;99222.19;;;10.29;100.00
5996;BME280;3026;53.612;7.278;2023-04-01T02:38:07;99229.97;;;10.32;100.00
5996;BME280;3026;53.612;7.278;2023-04-01T02:40:45;99230.59;;;10.34;100.00
5996;BME280;3026;53.612;7.278;2023-04-01T02:43:12;99233.75;;;10.31;100.00
5996;BME280;3026;53.612;7.278;2023-04-01T02:45:39;99235.44;;;10.32;100.00
5996;BME280;3026;53.612;7.278;2023-04-01T02:48:06;99226.19;;;10.27;100.00
5996;BME280;3026;53.612;7.278;2023-04-01T02:50:33;99235.44;;;10.32;100.00
5996;BME280;3026;53.612;7.278;2023-04-01T02:53:00;99230.81;;;10.33;100.00
5996;BME280;3026;53.612;7.278;2023-04-01T02:55:28;99232.91;;;10.31;100.00
5996;BME280;3026;53.612;7.278;2023-04-01T02:57:57;99245.06;;;10.35;100.00
5996;BME280;3026;53.612;7.278;2023-04-01T03:00:24;99241.28;;;10.36;100.00
5996;BME280;3026;53.612;7.278;2023-04-01T03:02:51;99249.66;;;10.34;100.00
5996;BME280;3026;53.612;7.278;2023-04-01T03:05:18;99251.34;;;10.35;100.00
5996;BME280;3026;53.612;7.278;2023-04-01T03:07:46;99248.00;;;10.33;100.00
5996;BME280;3026;53.612;7.278;2023-04-01T03:10:13;99246.94;;;10.34;100.00
5996;BME280;3026;53.612;7.278;2023-04-01T03:12:40;99251.34;;;10.35;100.00
5996;BME280;3026;53.612;7.278;2023-04-01T03:15:11;99252.41;;;10.34;100.00
5996;BME280;3026;53.612;7.278;2023-04-01T03:17:40;99253.00;;;10.36;100.00
5996;BME280;3026;53.612;7.278;2023-04-01T03:20:08;99258.03;;;10.39;100.00
5996;BME280;3026;53.612;7.278;2023-04-01T03:22:36;99255.53;;;10.38;100.00
5996;BME280;3026;53.612;7.278;2023-04-01T03:25:05;99250.28;;;10.36;100.00
5996;BME280;3026;53.612;7.278;2023-04-01T03:27:33;99254.69;;;10.37;100.00
5996;BME280;3026;53.612;7.278;2023-04-01T03:30:00;99263.91;;;10.36;100.00
5996;BME280;3026;53.612;7.278;2023-04-01T03:32:28;99255.75;;;10.36;100.00
5996;BME280;3026;53.612;7.278;2023-04-01T03:34:55;99258.47;;;10.36;100.00
5996;BME280;3026;53.612;7.278;2023-04-01T03:37:22;99265.59;;;10.37;100.00
5996;BME280;3026;53.612;7.278;2023-04-01T03:39:50;99272.72;;;10.38;100.00
5996;BME280;3026;53.612;7.278;2023-04-01T03:42:17;99271.66;;;10.39;100.00
5996;BME280;3026;53.612;7.278;2023-04-01T03:44:44;99268.09;;;10.39;100.00
5996;BME280;3026;53.612;7.278;2023-04-01T03:47:11;99268.94;;;10.39;100.00
5996;BME280;3026;53.612;7.278;2023-04-01T03:49:40;99269.97;;;10.38;100.00
5996;BME280;3026;53.612;7.278;2023-04-01T03:52:09;99278.16;;;10.38;100.00
5996;BME280;3026;53.612;7.278;2023-04-01T03:54:36;99273.75;;;10.37;100.00
5996;BME280;3026;53.612;7.278;2023-04-01T03:57:03;99279.84;;;10.39;100.00
5996;BME280;3026;53.612;7.278;2023-04-01T03:59:30;99277.31;;;10.38;100.00
5996;BME280;3026;53.612;7.278;2023-04-01T04:01:57;99284.88;;;10.36;100.00
5996;BME280;3026;53.612;7.278;2023-04-01T04:04:24;99290.09;;;10.37;100.00
5996;BME280;3026;53.612;7.278;2023-04-01T04:06:53;99297.84;;;10.40;100.00
5996;BME280;3026;53.612;7.278;2023-04-01T04:09:19;99297.66;;;10.42;100.00
5996;BME280;3026;53.612;7.278;2023-04-01T04:11:48;99295.34;;;10.39;100.00
5996;BME280;3026;53.612;7.278;2023-04-01T04:14:15;99301.22;;;10.42;100.00
5996;BME280;3026;53.612;7.278;2023-04-01T04:16:42;99299.34;;;10.43;100.00
5996;BME280;3026;53.612;7.278;2023-04-01T04:19:09;99301.22;;;10.42;100.00
5996;BME280;3026;53.612;7.278;2023-04-01T04:21:36;99299.53;;;10.41;100.00
5996;BME280;3026;53.612;7.278;2023-04-01T04:24:05;99310.03;;;10.44;100.00
5996;BME280;3026;53.612;7.278;2023-04-01T04:26:32;99308.34;;;10.43;100.00
5996;BME280;3026;53.612;7.278;2023-04-01T04:28:59;99310.03;;;10.44;100.00
5996;BME280;3026;53.612;7.278;2023-04-01T04:31:27;99311.28;;;10.42;100.00
5996;BME280;3026;53.612;7.278;2023-04-01T04:33:54;99304.97;;;10.41;100.00
5996;BME280;3026;53.612;7.278;2023-04-01T04:36:21;99323.03;;;10.42;100.00
5996;BME280;3026;53.612;7.278;2023-04-01T04:38:49;99319.25;;;10.43;100.00
5996;BME280;3026;53.612;7.278;2023-04-01T04:41:18;99323.88;;;10.43;100.00
5996;BME280;3026;53.612;7.278;2023-04-01T04:43:51;99321.31;;;10.41;100.00
5996;BME280;3026;53.612;7.278;2023-04-01T04:46:18;99330.16;;;10.43;100.00
5996;BME280;3026;53.612;7.278;2023-04-01T04:48:45;99337.28;;;10.44;100.00
5996;BME280;3026;53.612;7.278;2023-04-01T04:51:14;99340.00;;;10.44;100.00
5996;BME280;3026;53.612;7.278;2023-04-01T04:53:41;99338.53;;;10.42;100.00
5996;BME280;3026;53.612;7.278;2023-04-01T04:56:08;99341.06;;;10.43;100.00
5996;BME280;3026;53.612;7.278;2023-04-01T04:58:37;99346.50;;;10.43;100.00
5996;BME280;3026;53.612;7.278;2023-04-01T05:01:06;99346.50;;;10.43;100.00
5996;BME280;3026;53.612;7.278;2023-04-01T05:03:33;99350.28;;;10.42;100.00
5996;BME280;3026;53.612;7.278;2023-04-01T05:06:00;99338.09;;;10.38;100.00
5996;BME280;3026;53.612;7.278;2023-04-01T05:08:29;99354.03;;;10.41;100.00
5996;BME280;3026;53.612;7.278;2023-04-01T05:10:58;99356.75;;;10.41;100.00
5996;BME280;3026;53.612;7.278;2023-04-01T05:13:25;99359.47;;;10.41;100.00
5996;BME280;3026;53.612;7.278;2023-04-01T05:15:53;99359.47;;;10.41;100.00
5996;BME280;3026;53.612;7.278;2023-04-01T05:18:20;99361.56;;;10.39;100.00
5996;BME280;3026;53.612;7.278;2023-04-01T05:20:48;99370.38;;;10.41;100.00
5996;BME280;3026;53.612;7.278;2023-04-01T05:23:16;99363.25;;;10.40;100.00
5996;BME280;3026;53.612;7.278;2023-04-01T05:25:43;99370.38;;;10.41;100.00
5996;BME280;3026;53.612;7.278;2023-04-01T05:28:10;99372.47;;;10.39;100.00
5996;BME280;3026;53.612;7.278;2023-04-01T05:30:39;99376.88;;;10.40;100.00
5996;BME280;3026;53.612;7.278;2023-04-01T05:33:08;99379.59;;;10.40;100.00
5996;BME280;3026;53.612;7.278;2023-04-01T05:35:36;99378.34;;;10.36;100.00
5996;BME280;3026;53.612;7.278;2023-04-01T05:38:03;99388.81;;;10.39;100.00
5996;BME280;3026;53.612;7.278;2023-04-01T05:40:30;99385.03;;;10.40;100.00
5996;BME280;3026;53.612;7.278;2023-04-01T05:42:57;99390.50;;;10.40;100.00
5996;BME280;3026;53.612;7.278;2023-04-01T05:45:24;99400.56;;;10.40;100.00
5996;BME280;3026;53.612;7.278;2023-04-01T05:47:51;99394.69;;;10.36;100.00
5996;BME280;3026;53.612;7.278;2023-04-01T05:50:20;99396.34;;;10.37;100.00
5996;BME280;3026;53.612;7.278;2023-04-01T05:52:47;99396.34;;;10.37;100.00
5996;BME280;3026;53.612;7.278;2023-04-01T05:55:14;99401.81;;;10.37;100.00
5996;BME280;3026;53.612;7.278;2023-04-01T05:57:41;99408.94;;;10.38;100.00
5996;BME280;3026;53.612;7.278;2023-04-01T06:00:09;99415.44;;;10.37;100.00
5996;BME280;3026;53.612;7.278;2023-04-01T06:02:36;99409.78;;;10.32;100.00
5996;BME280;3026;53.612;7.278;2023-04-01T06:05:13;99406.81;;;10.27;100.00
5996;BME280;3026;53.612;7.278;2023-04-01T06:07:42;99417.91;;;10.26;100.00
5996;BME280;3026;53.612;7.278;2023-04-01T06:10:12;99428.19;;;10.23;100.00
5996;BME280;3026;53.612;7.278;2023-04-01T06:21:50;99438.44;;;9.80;100.00
5996;BME280;3026;53.612;7.278;2023-04-01T06:24:34;99442.63;;;9.76;100.00
5996;BME280;3026;53.612;7.278;2023-04-01T06:27:16;99448.84;;;9.70;100.00
5996;BME280;3026;53.612;7.278;2023-04-01T06:29:54;99455.09;;;9.64;100.00
5996;BME280;3026;53.612;7.278;2023-04-01T06:32:50;99457.13;;;9.55;100.00
5996;BME280;3026;53.612;7.278;2023-04-01T06:35:31;99472.41;;;9.50;100.00
5996;BME280;3026;53.612;7.278;2023-04-01T06:38:21;99473.81;;;9.46;100.00
5996;BME280;3026;53.612;7.278;2023-04-01T06:41:08;99478.81;;;9.42;100.00
5996;BME280;3026;53.612;7.278;2023-04-01T06:43:49;99481.28;;;9.37;100.00
5996;BME280;3026;53.612;7.278;2023-04-01T06:46:24;99489.63;;;9.35;100.00
5996;BME280;3026;53.612;7.278;2023-04-01T06:49:04;99490.03;;;9.32;100.00
5996;BME280;3026;53.612;7.278;2023-04-01T06:51:40;99495.88;;;9.29;100.00
5996;BME280;3026;53.612;7.278;2023-04-01T06:54:18;99494.97;;;9.22;100.00
5996;BME280;3026;53.612;7.278;2023-04-01T06:56:53;99505.41;;;9.19;100.00
5996;BME280;3026;53.612;7.278;2023-04-01T06:59:25;99512.47;;;9.13;100.00
5996;BME280;3026;53.612;7.278;2023-04-01T07:01:55;99510.78;;;9.12;100.00
5996;BME280;3026;53.612;7.278;2023-04-01T07:04:25;99515.78;;;9.09;100.00
5996;BME280;3026;53.612;7.278;2023-04-01T07:06:57;99514.94;;;9.08;100.00
5996;BME280;3026;53.612;7.278;2023-04-01T07:09:28;99523.69;;;9.03;100.00
5996;BME280;3026;53.612;7.278;2023-04-01T07:12:02;99524.53;;;9.04;100.00
5996;BME280;3026;53.612;7.278;2023-04-01T07:14:34;99544.22;;;9.06;100.00
5996;BME280;3026;53.612;7.278;2023-04-01T07:17:05;99551.25;;;9.00;100.00
5996;BME280;3026;53.612;7.278;2023-04-01T07:19:37;99557.91;;;8.98;100.00
5996;BME280;3026;53.612;7.278;2023-04-01T07:22:16;99572.16;;;9.00;100.00
5996;BME280;3026;53.612;7.278;2023-04-01T07:24:44;99575.47;;;8.95;100.00
5996;BME280;3026;53.612;7.278;2023-04-01T07:27:13;99570.88;;;8.96;100.00
5996;BME280;3026;53.612;7.278;2023-04-01T07:29:41;99570.03;;;8.95;100.00
5996;BME280;3026;53.612;7.278;2023-04-01T07:32:20;99578.00;;;8.97;100.00
5996;BME280;3026;53.612;7.278;2023-04-01T07:35:00;99591.97;;;8.94;100.00
5996;BME280;3026;53.612;7.278;2023-04-01T07:37:37;99591.69;;;8.89;100.00
5996;BME280;3026;53.612;7.278;2023-04-01T07:40:17;99591.31;;;8.92;100.00
5996;BME280;3026;53.612;7.278;2023-04-01T07:43:00;99600.13;;;8.94;100.00
5996;BME280;3026;53.612;7.278;2023-04-01T07:45:36;99595.44;;;8.88;100.00
5996;BME280;3026;53.612;7.278;2023-04-01T07:48:17;99599.59;;;8.84;100.00
5996;BME280;3026;53.612;7.278;2023-04-01T07:50:51;99611.31;;;8.84;100.00
5996;BME280;3026;53.612;7.278;2023-04-01T07:53:25;99602.88;;;8.79;100.00
5996;BME280;3026;53.612;7.278;2023-04-01T07:56:03;99616.28;;;8.81;100.00
5996;BME280;3026;53.612;7.278;2023-04-01T07:58:38;99629.69;;;8.82;100.00
5996;BME280;3026;53.612;7.278;2023-04-01T08:01:13;99631.91;;;8.78;100.00
5996;BME280;3026;53.612;7.278;2023-04-01T08:03:55;99638.78;;;8.74;100.00
5996;BME280;3026;53.612;7.278;2023-04-01T08:06:34;99640.84;;;8.72;100.00
5996;BME280;3026;53.612;7.278;2023-04-01T08:09:08;99644.59;;;8.71;100.00
5996;BME280;3026;53.612;7.278;2023-04-01T08:11:46;99645.34;;;8.65;100.00
5996;BME280;3026;53.612;7.278;2023-04-01T08:14:27;99658.56;;;8.68;100.00
5996;BME280;3026;53.612;7.278;2023-04-01T08:17:02;99668.75;;;8.66;100.00
5996;BME280;3026;53.612;7.278;2023-04-01T08:19:40;99671.59;;;8.58;100.00
5996;BME280;3026;53.612;7.278;2023-04-01T08:22:17;99677.88;;;8.59;100.00
5996;BME280;3026;53.612;7.278;2023-04-01T08:24:48;99668.88;;;8.58;100.00
5996;BME280;3026;53.612;7.278;2023-04-01T08:27:19;99680.03;;;8.63;100.00
5996;BME280;3026;53.612;7.278;2023-04-01T08:29:52;99682.09;;;8.61;100.00
5996;BME280;3026;53.612;7.278;2023-04-01T08:32:25;99697.94;;;8.58;100.00
5996;BME280;3026;53.612;7.278;2023-04-01T08:35:01;99696.41;;;8.55;100.00
5996;BME280;3026;53.612;7.278;2023-04-01T08:37:36;99707.28;;;8.55;100.00
5996;BME280;3026;53.612;7.278;2023-04-01T08:40:17;99710.38;;;8.52;100.00
5996;BME280;3026;53.612;7.278;2023-04-01T08:43:02;99711.97;;;8.46;100.00
5996;BME280;3026;53.612;7.278;2023-04-01T08:45:44;99719.94;;;8.48;100.00
5996;BME280;3026;53.612;7.278;2023-04-01T08:48:31;99727.06;;;8.49;100.00
5996;BME280;3026;53.612;7.278;2023-04-01T08:51:38;99733.34;;;8.50;100.00
5996;BME280;3026;53.612;7.278;2023-04-01T08:54:24;99734.16;;;8.50;100.00
5996;BME280;3026;53.612;7.278;2023-04-01T08:57:01;99728.75;;;8.50;100.00
5996;BME280;3026;53.612;7.278;2023-04-01T08:59:54;99734.56;;;8.47;100.00
5996;BME280;3026;53.612;7.278;2023-04-01T09:02:45;99745.97;;;8.42;100.00
5996;BME280;3026;53.612;7.278;2023-04-01T09:05:41;99755.31;;;8.40;100.00
5996;BME280;3026;53.612;7.278;2023-04-01T09:08:27;99756.94;;;8.34;100.00
5996;BME280;3026;53.612;7.278;2023-04-01T09:11:01;99754.03;;;8.36;100.00
5996;BME280;3026;53.612;7.278;2023-04-01T09:13:51;99760.78;;;8.32;100.00
5996;BME280;3026;53.612;7.278;2023-04-01T09:16:46;99761.47;;;8.34;100.00
5996;BME280;3026;53.612;7.278;2023-04-01T09:19:26;99768.09;;;8.31;100.00
5996;BME280;3026;53.612;7.278;2023-04-01T09:22:22;99769.31;;;8.29;100.00
5996;BME280;3026;53.612;7.278;2023-04-01T09:27:57;99778.03;;;8.24;100.00
5996;BME280;3026;53.612;7.278;2023-04-01T09:30:48;99786.38;;;8.23;100.00
5996;BME280;3026;53.612;7.278;2023-04-01T09:36:38;99792.13;;;8.19;100.00
5996;BME280;3026;53.612;7.278;2023-04-01T09:39:19;99799.63;;;8.17;100.00
5996;BME280;3026;53.612;7.278;2023-04-01T09:42:15;99797.28;;;8.14;100.00
5996;BME280;3026;53.612;7.278;2023-04-01T09:44:57;99815.91;;;8.17;100.00
5996;BME280;3026;53.612;7.278;2023-04-01T09:47:42;99813.84;;;8.19;100.00
5996;BME280;3026;53.612;7.278;2023-04-01T09:50:21;99820.03;;;8.13;100.00
5996;BME280;3026;53.612;7.278;2023-04-01T09:53:04;99828.47;;;8.18;100.00
5996;BME280;3026;53.612;7.278;2023-04-01T09:56:10;99834.56;;;8.20;100.00
5996;BME280;3026;53.612;7.278;2023-04-01T09:59:00;99835.06;;;8.24;100.00
5996;BME280;3026;53.612;7.278;2023-04-01T10:01:55;99853.22;;;8.24;100.00
5996;BME280;3026;53.612;7.278;2023-04-01T10:05:00;99851.16;;;8.26;100.00
5996;BME280;3026;53.612;7.278;2023-04-01T10:08:14;99851.44;;;8.31;100.00
5996;BME280;3026;53.612;7.278;2023-04-01T10:14:25;99858.06;;;8.36;100.00
5996;BME280;3026;53.612;7.278;2023-04-01T10:19:59;99865.66;;;8.41;100.00
5996;BME280;3026;53.612;7.278;2023-04-01T10:32:10;99884.97;;;8.69;100.00
5996;BME280;3026;53.612;7.278;2023-04-01T10:38:19;99891.81;;;8.80;100.00
5996;BME280;3026;53.612;7.278;2023-04-01T10:41:22;99894.63;;;8.71;100.00
5996;BME280;3026;53.612;7.278;2023-04-01T10:44:15;99908.50;;;8.76;100.00
5996;BME280;3026;53.612;7.278;2023-04-01T10:47:31;99892.56;;;8.73;100.00
5996;BME280;3026;53.612;7.278;2023-04-01T10:50:35;99909.91;;;8.72;100.00
5996;BME280;3026;53.612;7.278;2023-04-01T10:53:34;99904.66;;;8.71;100.00
5996;BME280;3026;53.612;7.278;2023-04-01T10:56:34;99918.06;;;8.72;100.00
5996;BME280;3026;53.612;7.278;2023-04-01T11:05:42;99916.34;;;8.71;100.00
5996;BME280;3026;53.612;7.278;2023-04-01T11:11:53;99935.19;;;8.73;100.00
5996;BME280;3026;53.612;7.278;2023-04-01T11:24:09;99959.91;;;8.63;100.00
5996;BME280;3026;53.612;7.278;2023-04-01T11:26:50;99964.69;;;8.61;100.00
5996;BME280;3026;53.612;7.278;2023-04-01T11:29:33;99968.41;;;8.60;100.00
5996;BME280;3026;53.612;7.278;2023-04-01T11:32:20;99966.38;;;8.62;100.00
5996;BME280;3026;53.612;7.278;2023-04-01T11:35:12;99976.56;;;8.60;100.00
5996;BME280;3026;53.612;7.278;2023-04-01T11:37:49;99993.53;;;8.62;100.00
5996;BME280;3026;53.612;7.278;2023-04-01T11:40:23;99995.22;;;8.63;100.00
5996;BME280;3026;53.612;7.278;2023-04-01T11:43:11;99984.72;;;8.60;100.00
5996;BME280;3026;53.612;7.278;2023-04-01T11:45:46;99992.22;;;8.58;100.00
5996;BME280;3026;53.612;7.278;2023-04-01T11:51:32;100010.03;;;8.61;100.00
5996;BME280;3026;53.612;7.278;2023-04-01T11:54:12;100018.03;;;8.54;100.00
5996;BME280;3026;53.612;7.278;2023-04-01T11:57:00;100023.84;;;8.51;100.00
5996;BME280;3026;53.612;7.278;2023-04-01T11:59:51;100025.88;;;8.49;100.00
5996;BME280;3026;53.612;7.278;2023-04-01T12:02:28;100039.16;;;8.44;100.00
5996;BME280;3026;53.612;7.278;2023-04-01T12:05:21;100038.81;;;8.47;100.00
5996;BME280;3026;53.612;7.278;2023-04-01T12:07:58;100045.59;;;8.43;100.00
5996;BME280;3026;53.612;7.278;2023-04-01T12:10:36;100043.25;;;8.40;100.00
5996;BME280;3026;53.612;7.278;2023-04-01T12:13:15;100065.63;;;8.50;100.00
5996;BME280;3026;53.612;7.278;2023-04-01T12:16:00;100068.63;;;8.55;100.00
5996;BME280;3026;53.612;7.278;2023-04-01T12:18:35;100067.47;;;8.58;100.00
5996;BME280;3026;53.612;7.278;2023-04-01T12:21:17;100061.88;;;8.51;100.00
5996;BME280;3026;53.612;7.278;2023-04-01T12:24:25;100079.88;;;8.52;100.00
5996;BME280;3026;53.612;7.278;2023-04-01T12:27:07;100074.78;;;8.49;100.00
5996;BME280;3026;53.612;7.278;2023-04-01T12:29:58;100094.84;;;8.48;100.00
5996;BME280;3026;53.612;7.278;2023-04-01T12:32:36;100085.19;;;8.45;100.00
5996;BME280;3026;53.612;7.278;2023-04-01T12:35:21;100097.59;;;8.40;100.00
5996;BME280;3026;53.612;7.278;2023-04-01T12:38:16;100095.53;;;8.42;100.00
5996;BME280;3026;53.612;7.278;2023-04-01T12:40:54;100102.66;;;8.43;100.00
5996;BME280;3026;53.612;7.278;2023-04-01T12:43:54;100109.44;;;8.47;100.00
5996;BME280;3026;53.612;7.278;2023-04-01T12:46:31;100116.56;;;8.48;100.00
5996;BME280;3026;53.612;7.278;2023-04-01T12:49:20;100111.13;;;8.48;100.00
5996;BME280;3026;53.612;7.278;2023-04-01T12:52:03;100118.63;;;8.46;100.00
5996;BME280;3026;53.612;7.278;2023-04-01T12:57:57;100143.09;;;8.38;100.00
5996;BME280;3026;53.612;7.278;2023-04-01T13:00:46;100144.44;;;8.34;100.00
5996;BME280;3026;53.612;7.278;2023-04-01T13:03:48;100147.50;;;8.31;100.00
5996;BME280;3026;53.612;7.278;2023-04-01T13:06:41;100148.22;;;8.25;100.00
5996;BME280;3026;53.612;7.278;2023-04-01T13:09:23;100160.94;;;8.24;100.00
5996;BME280;3026;53.612;7.278;2023-04-01T13:12:07;100155.69;;;8.23;100.00
5996;BME280;3026;53.612;7.278;2023-04-01T13:14:57;100177.41;;;8.23;100.00
5996;BME280;3026;53.612;7.278;2023-04-01T13:17:29;100184.34;;;8.25;100.00
5996;BME280;3026;53.612;7.278;2023-04-01T13:20:11;100179.09;;;8.24;100.00
5996;BME280;3026;53.612;7.278;2023-04-01T13:22:52;100184.72;;;8.22;100.00
5996;BME280;3026;53.612;7.278;2023-04-01T13:25:27;100181.47;;;8.18;100.00
5996;BME280;3026;53.612;7.278;2023-04-01T13:28:09;100207.78;;;8.18;100.00
5996;BME280;3026;53.612;7.278;2023-04-01T13:30:47;100218.16;;;8.14;100.00
5996;BME280;3026;53.612;7.278;2023-04-01T13:33:26;100214.25;;;8.09;100.00
5996;BME280;3026;53.612;7.278;2023-04-01T13:36:04;100224.97;;;8.10;100.00
5996;BME280;3026;53.612;7.278;2023-04-01T13:39:01;100228.00;;;8.07;100.00
5996;BME280;3026;53.612;7.278;2023-04-01T13:41:47;100220.38;;;8.03;100.00
5996;BME280;3026;53.612;7.278;2023-04-01T13:44:27;100230.75;;;7.99;100.00
5996;BME280;3026;53.612;7.278;2023-04-01T13:47:41;100240.22;;;7.95;100.00
5996;BME280;3026;53.612;7.278;2023-04-01T13:50:31;100236.84;;;7.93;100.00
5996;BME280;3026;53.612;7.278;2023-04-01T13:53:43;100249.41;;;7.78;100.00
5996;BME280;3026;53.612;7.278;2023-04-01T13:56:31;100252.78;;;7.80;100.00
5996;BME280;3026;53.612;7.278;2023-04-01T13:59:25;100264.00;;;7.77;100.00
5996;BME280;3026;53.612;7.278;2023-04-01T14:02:04;100260.06;;;7.71;100.00
5996;BME280;3026;53.612;7.278;2023-04-01T14:05:02;100279.22;;;7.70;100.00
5996;BME280;3026;53.612;7.278;2023-04-01T14:07:46;100275.50;;;7.71;100.00
5996;BME280;3026;53.612;7.278;2023-04-01T14:10:22;100265.00;;;7.68;100.00
5996;BME280;3026;53.612;7.278;2023-04-01T14:12:58;100283.81;;;7.69;100.00
5996;BME280;3026;53.612;7.278;2023-04-01T14:18:50;100289.03;;;7.63;100.00
5996;BME280;3026;53.612;7.278;2023-04-01T14:21:29;100294.47;;;7.63;100.00
5996;BME280;3026;53.612;7.278;2023-04-01T14:24:15;100311.78;;;7.61;100.00
5996;BME280;3026;53.612;7.278;2023-04-01T14:27:11;100314.47;;;7.61;100.00
5996;BME280;3026;53.612;7.278;2023-04-01T14:29:46;100311.44;;;7.56;100.00
5996;BME280;3026;53.612;7.278;2023-04-01T14:32:27;100313.78;;;7.51;100.00
5996;BME280;3026;53.612;7.278;2023-04-01T14:35:23;100321.25;;;7.49;100.00
5996;BME280;3026;53.612;7.278;2023-04-01T14:38:20;100328.53;;;7.49;100.00
5996;BME280;3026;53.612;7.278;2023-04-01T14:41:02;100327.16;;;7.45;100.00
5996;BME280;3026;53.612;7.278;2023-04-01T14:44:05;100344.94;;;7.39;100.00
5996;BME280;3026;53.612;7.278;2023-04-01T14:47:22;100348.66;;;7.30;100.00
5996;BME280;3026;53.612;7.278;2023-04-01T14:50:06;100359.50;;;7.30;100.00
5996;BME280;3026;53.612;7.278;2023-04-01T14:52:38;100359.81;;;7.27;100.00
5996;BME280;3026;53.612;7.278;2023-04-01T14:55:20;100380.13;;;7.23;100.00
5996;BME280;3026;53.612;7.278;2023-04-01T14:58:07;100366.38;;;7.16;100.00
5996;BME280;3026;53.612;7.278;2023-04-01T15:00:48;100359.75;;;7.11;100.00
5996;BME280;3026;53.612;7.278;2023-04-01T15:03:24;100370.91;;;7.08;100.00
5996;BME280;3026;53.612;7.278;2023-04-01T15:06:00;100388.56;;;7.12;100.00
5996;BME280;3026;53.612;7.278;2023-04-01T15:08:49;100393.13;;;7.11;100.00
5996;BME280;3026;53.612;7.278;2023-04-01T15:11:26;100395.66;;;7.13;100.00
5996;BME280;3026;53.612;7.278;2023-04-01T15:14:27;100398.03;;;7.08;100.00